createdAt,value
2022-12-28T00:01:09.803Z,7.57
2022-12-28T00:03:36.289Z,7.60
2022-12-28T00:06:02.830Z,7.61
2022-12-28T00:08:29.325Z,7.63
2022-12-28T00:11:08.313Z,7.65
2022-12-28T00:13:36.958Z,7.69
2022-12-28T00:16:11.473Z,7.72
2022-12-28T00:18:38.099Z,7.77
2022-12-28T00:21:04.978Z,7.81
2022-12-28T00:23:31.680Z,7.85
2022-12-28T00:26:13.664Z,7.85
2022-12-28T00:28:40.245Z,7.87
2022-12-28T00:31:07.040Z,7.89
2022-12-28T00:33:33.777Z,7.89
2022-12-28T00:36:01.415Z,7.90
2022-12-28T00:38:28.797Z,7.95
2022-12-28T00:40:55.371Z,7.96
2022-12-28T00:43:21.906Z,7.98
2022-12-28T00:45:49.238Z,7.98
2022-12-28T00:48:16.104Z,7.97
2022-12-28T00:50:43.080Z,8.01
2022-12-28T00:53:09.914Z,8.04
2022-12-28T00:55:36.646Z,8.03
2022-12-28T00:58:03.775Z,8.01
2022-12-28T01:00:30.971Z,8.02
2022-12-28T01:02:57.312Z,8.06
2022-12-28T01:05:24.085Z,8.07
2022-12-28T01:07:50.749Z,8.07
2022-12-28T01:10:17.188Z,8.10
2022-12-28T01:12:43.606Z,8.11
2022-12-28T01:15:11.039Z,8.12
2022-12-28T01:17:37.486Z,8.13
2022-12-28T01:20:04.393Z,8.15
2022-12-28T01:22:30.820Z,8.18
2022-12-28T01:24:57.292Z,8.19
2022-12-28T01:27:23.704Z,8.23
2022-12-28T01:29:50.086Z,8.24
2022-12-28T01:32:16.700Z,8.24
2022-12-28T01:34:43.090Z,8.22
2022-12-28T01:37:09.523Z,8.22
2022-12-28T01:39:35.906Z,8.23
2022-12-28T01:42:02.292Z,8.25
2022-12-28T01:44:39.477Z,8.26
2022-12-28T01:47:09.176Z,8.27
2022-12-28T01:49:53.344Z,8.29
2022-12-28T01:52:27.712Z,8.30
2022-12-28T01:54:58.310Z,8.33
2022-12-28T01:57:27.218Z,8.34
2022-12-28T01:59:56.051Z,8.33
2022-12-28T02:02:22.825Z,8.35
2022-12-28T02:04:49.818Z,8.34
2022-12-28T02:07:19.356Z,8.34
2022-12-28T02:10:41.172Z,8.35
2022-12-28T02:12:33.627Z,8.39
2022-12-28T02:15:01.144Z,8.40
2022-12-28T02:17:27.661Z,8.42
2022-12-28T02:19:54.172Z,8.43
2022-12-28T02:22:52.736Z,8.44
2022-12-28T02:25:38.023Z,8.45
2022-12-28T02:28:17.064Z,8.47
2022-12-28T02:30:47.592Z,8.47
2022-12-28T02:33:23.588Z,8.52
2022-12-28T02:35:59.210Z,8.52
2022-12-28T02:38:33.728Z,8.53
2022-12-28T02:41:09.261Z,8.55
2022-12-28T02:43:36.097Z,8.56
2022-12-28T02:46:31.189Z,8.55
2022-12-28T02:49:33.116Z,8.57
2022-12-28T02:52:18.250Z,8.61
2022-12-28T02:55:22.457Z,8.63
2022-12-28T02:57:50.168Z,8.64
2022-12-28T03:00:18.386Z,8.63
2022-12-28T03:02:53.211Z,8.64
2022-12-28T03:05:46.923Z,8.68
2022-12-28T03:08:20.130Z,8.70
2022-12-28T03:10:52.810Z,8.72
2022-12-28T03:13:38.272Z,8.75
2022-12-28T03:16:07.098Z,8.76
2022-12-28T03:18:53.869Z,8.77
2022-12-28T03:21:39.740Z,8.76
2022-12-28T03:24:26.364Z,8.80
2022-12-28T03:27:12.259Z,8.80
2022-12-28T03:29:59.620Z,8.82
2022-12-28T03:32:26.213Z,8.83
2022-12-28T03:34:53.015Z,8.86
2022-12-28T03:37:25.822Z,8.84
2022-12-28T03:40:12.444Z,8.89
2022-12-28T03:42:59.821Z,8.90
2022-12-28T03:45:46.364Z,8.90
2022-12-28T03:48:15.076Z,8.91
2022-12-28T03:50:46.852Z,8.93
2022-12-28T03:53:13.803Z,8.94
2022-12-28T03:55:40.487Z,8.96
2022-12-28T03:58:07.008Z,8.97
2022-12-28T04:00:33.695Z,8.99
2022-12-28T04:03:00.424Z,9.00
2022-12-28T04:05:26.875Z,9.03
2022-12-28T04:07:53.337Z,9.06
2022-12-28T04:10:19.769Z,9.05
2022-12-28T04:12:46.327Z,9.05
2022-12-28T04:15:12.724Z,9.07
2022-12-28T04:17:39.141Z,9.07
2022-12-28T04:20:05.917Z,9.11
2022-12-28T04:22:32.525Z,9.14
2022-12-28T04:24:58.956Z,9.16
2022-12-28T04:27:25.444Z,9.16
2022-12-28T04:29:51.871Z,9.18
2022-12-28T04:32:18.270Z,9.19
2022-12-28T04:34:48.435Z,9.21
2022-12-28T04:37:15.487Z,9.22
2022-12-28T04:39:54.801Z,9.21
2022-12-28T04:42:22.918Z,9.23
2022-12-28T04:44:49.328Z,9.24
2022-12-28T04:47:15.716Z,9.25
2022-12-28T04:49:42.110Z,9.26
2022-12-28T04:52:08.481Z,9.28
2022-12-28T04:54:34.801Z,9.29
2022-12-28T04:57:01.220Z,9.33
2022-12-28T04:59:27.522Z,9.32
2022-12-28T05:01:53.953Z,9.35
2022-12-28T05:04:40.703Z,9.37
2022-12-28T05:07:07.051Z,9.39
2022-12-28T05:09:33.415Z,9.41
2022-12-28T05:11:59.739Z,9.41
2022-12-28T05:14:26.086Z,9.44
2022-12-28T05:16:52.448Z,9.42
2022-12-28T05:19:19.095Z,9.31
2022-12-28T05:21:45.402Z,9.50
2022-12-28T05:24:11.819Z,9.50
2022-12-28T05:26:38.171Z,9.51
2022-12-28T05:29:04.573Z,9.51
2022-12-28T05:31:30.901Z,9.54
2022-12-28T05:33:57.436Z,9.55
2022-12-28T05:36:25.420Z,9.56
2022-12-28T05:38:52.547Z,9.59
2022-12-28T05:41:20.309Z,9.59
2022-12-28T05:43:47.086Z,9.61
2022-12-28T05:46:14.911Z,9.63
2022-12-28T05:48:42.431Z,9.61
2022-12-28T05:51:10.142Z,9.61
2022-12-28T05:53:37.079Z,9.60
2022-12-28T05:56:03.474Z,9.62
2022-12-28T05:58:53.121Z,9.64
2022-12-28T06:01:40.069Z,9.65
2022-12-28T06:04:31.613Z,9.68
2022-12-28T06:07:26.502Z,9.69
2022-12-28T06:09:52.848Z,9.49
2022-12-28T06:12:19.259Z,9.71
2022-12-28T06:14:45.610Z,9.71
2022-12-28T06:17:12.004Z,9.71
2022-12-28T06:19:38.667Z,9.72
2022-12-28T06:22:05.095Z,9.72
2022-12-28T06:24:31.681Z,9.71
2022-12-28T06:26:58.351Z,9.73
2022-12-28T06:29:24.900Z,9.74
2022-12-28T06:32:09.971Z,9.74
2022-12-28T06:34:36.556Z,9.74
2022-12-28T06:37:04.189Z,9.73
2022-12-28T06:39:30.579Z,9.75
2022-12-28T06:41:57.498Z,9.78
2022-12-28T06:44:23.935Z,9.79
2022-12-28T06:46:50.306Z,9.80
2022-12-28T06:49:16.737Z,9.81
2022-12-28T06:52:01.952Z,9.80
2022-12-28T06:54:28.668Z,9.84
2022-12-28T06:56:55.207Z,9.83
2022-12-28T06:59:22.011Z,9.86
2022-12-28T07:01:48.612Z,9.89
2022-12-28T07:04:15.308Z,9.90
2022-12-28T07:06:43.912Z,9.92
2022-12-28T07:09:13.275Z,9.92
2022-12-28T07:11:39.870Z,9.93
2022-12-28T07:14:06.323Z,9.91
2022-12-28T07:18:59.217Z,9.94
2022-12-28T07:21:27.213Z,9.95
2022-12-28T07:23:55.027Z,9.94
2022-12-28T07:26:23.008Z,9.94
2022-12-28T07:28:50.945Z,9.95
2022-12-28T07:31:18.937Z,9.98
2022-12-28T07:33:45.980Z,10.00
2022-12-28T07:36:14.030Z,10.00
2022-12-28T07:38:40.786Z,9.99
2022-12-28T07:41:08.288Z,9.98
2022-12-28T07:43:35.325Z,9.99
2022-12-28T07:46:02.725Z,9.99
2022-12-28T07:48:30.784Z,10.01
2022-12-28T07:50:58.557Z,10.01
2022-12-28T07:53:24.996Z,10.02
2022-12-28T07:55:58.023Z,10.03
2022-12-28T07:58:24.566Z,10.04
2022-12-28T08:00:51.135Z,10.06
2022-12-28T08:03:18.025Z,10.07
2022-12-28T08:05:44.515Z,10.08
2022-12-28T08:08:11.035Z,10.10
2022-12-28T08:10:37.562Z,10.12
2022-12-28T08:13:03.939Z,10.12
2022-12-28T08:15:30.351Z,10.13
2022-12-28T08:17:56.848Z,10.17
2022-12-28T08:20:23.224Z,10.16
2022-12-28T08:22:49.588Z,10.18
2022-12-28T08:25:16.113Z,10.18
2022-12-28T08:27:42.441Z,10.18
2022-12-28T08:30:09.158Z,10.18
2022-12-28T08:32:35.552Z,10.22
2022-12-28T08:35:02.313Z,10.24
2022-12-28T08:37:28.692Z,10.26
2022-12-28T08:39:55.120Z,10.29
2022-12-28T08:42:21.635Z,10.31
2022-12-28T08:44:48.197Z,10.30
2022-12-28T08:47:14.595Z,10.35
2022-12-28T08:49:41.051Z,10.36
2022-12-28T08:52:07.724Z,10.39
2022-12-28T08:54:34.110Z,9.99
2022-12-28T08:57:00.515Z,10.37
2022-12-28T08:59:27.181Z,10.40
2022-12-28T09:01:53.706Z,10.43
2022-12-28T09:04:21.340Z,10.46
2022-12-28T09:06:48.303Z,10.46
2022-12-28T09:09:15.820Z,10.47
2022-12-28T09:11:42.780Z,10.50
2022-12-28T09:14:10.464Z,10.51
2022-12-28T09:16:37.750Z,10.52
2022-12-28T09:19:05.258Z,10.53
2022-12-28T09:21:33.768Z,10.55
2022-12-28T09:24:00.248Z,10.59
2022-12-28T09:26:28.245Z,10.59
2022-12-28T09:28:55.938Z,10.56
2022-12-28T09:31:23.488Z,10.58
2022-12-28T09:34:34.433Z,10.56
2022-12-28T09:36:45.200Z,10.61
2022-12-28T09:39:13.606Z,10.65
2022-12-28T09:41:58.685Z,10.67
2022-12-28T09:44:34.277Z,10.72
2022-12-28T09:47:03.836Z,10.77
2022-12-28T09:49:46.445Z,10.81
2022-12-28T09:52:25.180Z,10.81
2022-12-28T09:54:51.658Z,10.84
2022-12-28T09:57:18.868Z,10.89
2022-12-28T09:59:46.558Z,10.91
2022-12-28T10:02:23.596Z,10.91
2022-12-28T10:04:50.358Z,10.89
2022-12-28T10:07:16.800Z,10.86
2022-12-28T10:09:43.414Z,10.86
2022-12-28T10:12:14.945Z,10.89
2022-12-28T10:14:42.791Z,10.92
2022-12-28T10:17:12.913Z,10.93
2022-12-28T10:19:39.340Z,10.95
2022-12-28T10:22:12.596Z,10.99
2022-12-28T10:24:39.525Z,11.05
2022-12-28T10:27:10.756Z,11.07
2022-12-28T10:29:46.066Z,11.10
2022-12-28T10:32:13.247Z,11.10
2022-12-28T10:34:53.516Z,11.14
2022-12-28T10:37:20.230Z,11.12
2022-12-28T10:39:54.977Z,11.16
2022-12-28T10:42:27.318Z,11.18
2022-12-28T10:44:58.674Z,11.19
2022-12-28T10:47:35.326Z,11.24
2022-12-28T10:50:35.573Z,11.30
2022-12-28T10:52:55.735Z,11.31
2022-12-28T10:55:26.816Z,11.33
2022-12-28T10:58:27.618Z,11.31
2022-12-28T11:00:40.448Z,11.28
2022-12-28T11:03:17.684Z,11.27
2022-12-28T11:05:44.553Z,11.24
2022-12-28T11:08:13.866Z,11.24
2022-12-28T11:10:40.545Z,11.26
2022-12-28T11:13:21.604Z,11.24
2022-12-28T11:15:48.352Z,11.24
2022-12-28T11:18:16.059Z,11.26
2022-12-28T11:20:44.895Z,11.26
2022-12-28T11:23:15.552Z,11.28
2022-12-28T11:25:41.905Z,11.32
2022-12-28T11:28:13.327Z,11.37
2022-12-28T11:30:39.723Z,11.37
2022-12-28T11:33:09.858Z,11.32
2022-12-28T11:35:38.571Z,11.32
2022-12-28T11:38:06.426Z,11.32
2022-12-28T11:40:44.586Z,11.35
2022-12-28T11:43:29.562Z,11.32
2022-12-28T11:45:57.431Z,11.34
2022-12-28T11:48:42.168Z,11.32
2022-12-28T11:51:14.648Z,11.32
2022-12-28T11:53:44.503Z,11.34
2022-12-28T11:56:14.551Z,11.31
2022-12-28T11:58:40.869Z,11.29
2022-12-28T12:01:25.765Z,11.28
2022-12-28T12:03:58.027Z,11.29
2022-12-28T12:06:42.938Z,11.28
2022-12-28T12:09:21.533Z,11.30
2022-12-28T12:11:51.839Z,11.32
2022-12-28T12:14:23.977Z,11.32
2022-12-28T12:16:51.950Z,11.33
2022-12-28T12:19:25.637Z,11.31
2022-12-28T12:22:04.180Z,11.30
2022-12-28T12:24:41.188Z,11.27
2022-12-28T12:27:15.798Z,11.29
2022-12-28T12:29:49.145Z,11.26
2022-12-28T12:32:21.171Z,11.21
2022-12-28T12:34:50.967Z,11.21
2022-12-28T12:37:35.721Z,11.18
2022-12-28T12:40:16.832Z,11.17
2022-12-28T12:42:46.198Z,11.17
2022-12-28T12:45:23.881Z,11.19
2022-12-28T12:48:00.516Z,11.20
2022-12-28T12:50:45.639Z,11.24
2022-12-28T12:53:21.109Z,11.26
2022-12-28T12:55:53.523Z,11.25
2022-12-28T12:58:45.166Z,11.27
2022-12-28T13:01:23.870Z,11.30
2022-12-28T13:03:50.942Z,11.08
2022-12-28T13:06:19.425Z,11.29
2022-12-28T13:08:50.114Z,11.31
2022-12-28T13:11:18.001Z,11.29
2022-12-28T13:13:46.355Z,11.29
2022-12-28T13:16:16.118Z,11.27
2022-12-28T13:18:52.767Z,11.28
2022-12-28T13:21:20.607Z,11.28
2022-12-28T13:23:47.052Z,11.27
2022-12-28T13:26:14.575Z,11.26
2022-12-28T13:29:00.898Z,11.27
2022-12-28T13:31:38.381Z,11.26
2022-12-28T13:34:05.750Z,11.28
2022-12-28T13:36:32.162Z,11.26
2022-12-28T13:39:04.732Z,11.28
2022-12-28T13:41:32.357Z,11.27
2022-12-28T13:44:13.397Z,11.26
2022-12-28T13:46:40.948Z,11.28
2022-12-28T13:49:07.621Z,11.25
2022-12-28T13:51:38.505Z,11.29
2022-12-28T13:54:05.233Z,11.28
2022-12-28T13:56:33.611Z,11.29
2022-12-28T13:59:02.420Z,11.28
2022-12-28T14:01:35.924Z,11.30
2022-12-28T14:04:42.363Z,11.30
2022-12-28T14:06:51.701Z,11.30
2022-12-28T14:09:19.008Z,11.31
2022-12-28T14:11:45.929Z,11.30
2022-12-28T14:14:12.533Z,11.30
2022-12-28T14:16:39.018Z,11.31
2022-12-28T14:19:06.084Z,11.30
2022-12-28T14:21:36.589Z,11.30
2022-12-28T14:24:04.859Z,11.26
2022-12-28T14:26:31.630Z,11.28
2022-12-28T14:28:59.525Z,11.31
2022-12-28T14:31:29.189Z,11.32
2022-12-28T14:33:57.356Z,11.30
2022-12-28T14:36:35.503Z,11.37
2022-12-28T14:39:05.098Z,11.38
2022-12-28T14:41:34.881Z,11.37
2022-12-28T14:44:03.429Z,11.38
2022-12-28T14:46:37.293Z,11.42
2022-12-28T14:49:22.788Z,11.40
2022-12-28T14:52:17.994Z,11.41
2022-12-28T14:54:44.301Z,11.40
2022-12-28T14:57:21.490Z,11.38
2022-12-28T14:59:50.895Z,11.37
2022-12-28T15:02:35.813Z,11.34
2022-12-28T15:05:02.867Z,11.33
2022-12-28T15:07:31.168Z,11.37
2022-12-28T15:09:57.502Z,11.40
2022-12-28T15:12:26.558Z,11.35
2022-12-28T15:14:52.885Z,11.34
2022-12-28T15:17:19.292Z,11.30
2022-12-28T15:19:45.773Z,11.33
2022-12-28T15:22:12.436Z,11.35
2022-12-28T15:24:40.309Z,11.35
2022-12-28T15:27:06.740Z,11.33
2022-12-28T15:30:04.373Z,11.34
2022-12-28T15:32:19.476Z,11.30
2022-12-28T15:34:45.941Z,11.28
2022-12-28T15:37:12.255Z,11.27
2022-12-28T15:39:38.566Z,11.29
2022-12-28T15:42:04.949Z,11.30
2022-12-28T15:44:31.418Z,11.29
2022-12-28T15:46:57.846Z,11.32
2022-12-28T15:49:24.251Z,11.32
2022-12-28T15:51:50.985Z,11.31
2022-12-28T15:54:18.614Z,11.31
2022-12-28T15:56:51.147Z,11.30
2022-12-28T15:59:17.486Z,11.31
2022-12-28T16:01:44.783Z,11.30
2022-12-28T16:04:11.358Z,11.28
2022-12-28T16:06:43.839Z,11.28
2022-12-28T16:09:11.215Z,11.30
2022-12-28T16:11:37.594Z,11.29
2022-12-28T16:14:05.713Z,11.28
2022-12-28T16:16:34.822Z,11.26
2022-12-28T16:19:02.346Z,11.27
2022-12-28T16:21:29.263Z,11.26
2022-12-28T16:23:56.079Z,11.25
2022-12-28T16:26:22.890Z,11.28
2022-12-28T16:28:49.423Z,11.29
2022-12-28T16:31:26.390Z,11.30
2022-12-28T16:33:57.620Z,11.30
2022-12-28T16:36:23.957Z,11.30
2022-12-28T16:38:50.289Z,11.32
2022-12-28T16:41:17.827Z,11.35
2022-12-28T16:43:44.784Z,11.35
2022-12-28T16:46:11.207Z,11.34
2022-12-28T16:48:37.740Z,11.34
2022-12-28T16:51:04.382Z,11.34
2022-12-28T16:53:32.912Z,11.34
2022-12-28T16:56:00.598Z,11.33
2022-12-28T16:58:28.355Z,11.32
2022-12-28T17:00:54.880Z,11.31
2022-12-28T17:03:21.416Z,11.31
2022-12-28T17:05:51.979Z,11.30
2022-12-28T17:08:19.021Z,11.29
2022-12-28T17:10:45.719Z,11.28
2022-12-28T17:13:12.188Z,11.31
2022-12-28T17:15:38.831Z,11.30
2022-12-28T17:18:05.713Z,11.31
2022-12-28T17:20:32.936Z,11.28
2022-12-28T17:22:59.233Z,11.29
2022-12-28T17:25:25.743Z,11.31
2022-12-28T17:27:52.100Z,11.28
2022-12-28T17:30:18.525Z,11.29
2022-12-28T17:32:44.863Z,11.29
2022-12-28T17:35:11.166Z,11.36
2022-12-28T17:37:37.507Z,11.45
2022-12-28T17:40:04.149Z,11.45
2022-12-28T17:42:30.544Z,11.42
2022-12-28T17:44:57.513Z,11.39
2022-12-28T17:47:25.453Z,11.40
2022-12-28T17:49:51.792Z,11.38
2022-12-28T17:52:21.664Z,11.36
2022-12-28T17:54:48.327Z,11.33
2022-12-28T17:57:14.647Z,11.31
2022-12-28T17:59:41.071Z,11.24
2022-12-28T18:02:10.321Z,11.25
2022-12-28T18:04:36.999Z,11.25
2022-12-28T18:07:03.379Z,11.25
2022-12-28T18:09:29.716Z,11.20
2022-12-28T18:11:56.171Z,11.18
2022-12-28T18:14:22.607Z,11.23
2022-12-28T18:16:49.647Z,11.25
2022-12-28T18:19:16.209Z,11.19
2022-12-28T18:21:42.602Z,11.15
2022-12-28T18:24:11.371Z,10.78
2022-12-28T18:26:37.823Z,11.21
2022-12-28T18:29:22.548Z,11.17
2022-12-28T18:32:07.392Z,11.11
2022-12-28T18:34:36.492Z,11.07
2022-12-28T18:37:14.741Z,11.07
2022-12-28T18:39:41.113Z,11.05
2022-12-28T18:42:07.446Z,11.03
2022-12-28T18:44:33.808Z,11.03
2022-12-28T18:47:00.219Z,10.99
2022-12-28T18:49:47.251Z,10.96
2022-12-28T18:52:35.687Z,10.94
2022-12-28T18:55:21.108Z,10.96
2022-12-28T18:57:47.470Z,10.96
2022-12-28T19:00:32.250Z,11.02
2022-12-28T19:02:58.705Z,11.09
2022-12-28T19:05:30.598Z,11.10
2022-12-28T19:07:57.010Z,11.08
2022-12-28T19:10:23.471Z,11.08
2022-12-28T19:12:49.904Z,11.04
2022-12-28T19:15:16.536Z,11.03
2022-12-28T19:17:42.870Z,10.99
2022-12-28T19:20:09.347Z,10.95
2022-12-28T19:22:35.744Z,10.95
2022-12-28T19:25:02.273Z,10.94
2022-12-28T19:27:28.668Z,10.93
2022-12-28T19:29:54.983Z,10.95
2022-12-28T19:32:21.375Z,10.94
2022-12-28T19:34:47.827Z,10.92
2022-12-28T19:37:14.182Z,10.93
2022-12-28T19:39:40.681Z,10.92
2022-12-28T19:42:07.189Z,10.94
2022-12-28T19:44:33.489Z,10.93
2022-12-28T19:47:00.237Z,10.92
2022-12-28T19:49:26.637Z,10.91
2022-12-28T19:51:55.530Z,10.92
2022-12-28T19:54:22.147Z,10.92
2022-12-28T19:56:48.570Z,10.94
2022-12-28T19:59:14.955Z,10.97
2022-12-28T20:01:41.337Z,11.00
2022-12-28T20:04:13.541Z,11.00
2022-12-28T20:06:41.587Z,11.02
2022-12-28T20:09:08.686Z,11.04
2022-12-28T20:11:37.383Z,11.08
2022-12-28T20:14:04.520Z,11.09
2022-12-28T20:16:32.330Z,11.10
2022-12-28T20:19:01.381Z,11.17
2022-12-28T20:21:27.791Z,11.22
2022-12-28T20:23:54.424Z,11.22
2022-12-28T20:26:22.287Z,11.24
2022-12-28T20:28:50.568Z,11.25
2022-12-28T20:31:17.510Z,11.25
2022-12-28T20:33:44.507Z,11.28
2022-12-28T20:36:15.375Z,11.30
2022-12-28T20:38:42.248Z,11.34
2022-12-28T20:41:31.325Z,11.37
2022-12-28T20:44:30.041Z,11.38
2022-12-28T20:46:57.005Z,11.40
2022-12-28T20:49:24.111Z,11.40
2022-12-28T20:51:51.013Z,11.41
2022-12-28T20:54:21.840Z,11.42
2022-12-28T20:56:54.212Z,11.43
2022-12-28T20:59:24.182Z,11.44
2022-12-28T21:01:50.689Z,11.46
2022-12-28T21:04:17.202Z,11.47
2022-12-28T21:06:43.530Z,11.48
2022-12-28T21:09:09.820Z,11.46
2022-12-28T21:11:36.163Z,11.47
2022-12-28T21:14:02.713Z,11.49
2022-12-28T21:16:29.197Z,11.48
2022-12-28T21:18:55.580Z,11.48
2022-12-28T21:21:22.041Z,11.50
2022-12-28T21:23:48.472Z,11.50
2022-12-28T21:26:15.941Z,11.51
2022-12-28T21:28:42.800Z,11.51
2022-12-28T21:31:10.244Z,11.52
2022-12-28T21:33:37.525Z,11.52
2022-12-28T21:36:05.279Z,11.53
2022-12-28T21:38:32.423Z,11.54
2022-12-28T21:41:02.814Z,11.56
2022-12-28T21:43:29.735Z,11.57
2022-12-28T21:46:06.180Z,11.57
2022-12-28T21:48:33.515Z,11.58
2022-12-28T21:51:03.840Z,11.57
2022-12-28T21:53:30.201Z,11.59
2022-12-28T21:55:56.521Z,11.60
2022-12-28T21:58:22.892Z,11.61
2022-12-28T22:01:08.208Z,11.64
2022-12-28T22:03:53.257Z,11.64
2022-12-28T22:06:19.504Z,11.63
2022-12-28T22:09:04.324Z,11.64
2022-12-28T22:11:49.085Z,11.65
2022-12-28T22:14:15.419Z,11.66
2022-12-28T22:16:41.822Z,11.66
2022-12-28T22:19:08.160Z,11.64
2022-12-28T22:21:35.944Z,11.65
2022-12-28T22:24:02.259Z,11.64
2022-12-28T22:26:28.537Z,11.66
2022-12-28T22:28:54.859Z,11.65
2022-12-28T22:31:21.225Z,11.68
2022-12-28T22:33:47.615Z,11.69
2022-12-28T22:36:15.313Z,11.68
2022-12-28T22:38:41.586Z,11.71
2022-12-28T22:41:08.282Z,11.71
2022-12-28T22:43:34.644Z,11.72
2022-12-28T22:46:02.165Z,11.71
2022-12-28T22:48:28.698Z,11.74
2022-12-28T22:50:54.997Z,11.73
2022-12-28T22:53:21.263Z,11.76
2022-12-28T22:55:55.541Z,11.76
2022-12-28T22:58:21.838Z,11.77
2022-12-28T23:00:48.154Z,11.77
2022-12-28T23:03:14.479Z,11.79
2022-12-28T23:05:49.056Z,11.76
2022-12-28T23:08:15.332Z,11.76
2022-12-28T23:10:51.387Z,11.76
2022-12-28T23:13:17.749Z,11.74
2022-12-28T23:15:43.994Z,11.75
2022-12-28T23:18:28.995Z,11.74
2022-12-28T23:21:13.667Z,11.77
2022-12-28T23:23:58.411Z,11.77
2022-12-28T23:26:43.546Z,11.78
2022-12-28T23:29:09.873Z,11.77
2022-12-28T23:31:36.281Z,11.78
2022-12-28T23:34:03.085Z,11.79
2022-12-28T23:36:29.385Z,11.82
2022-12-28T23:38:55.765Z,11.83
2022-12-28T23:41:40.549Z,11.85
2022-12-28T23:44:06.941Z,11.85
2022-12-28T23:46:33.305Z,11.86
2022-12-28T23:48:59.638Z,11.88
2022-12-28T23:51:25.968Z,11.89
2022-12-28T23:53:52.246Z,11.91
2022-12-28T23:56:18.533Z,11.91
2022-12-28T23:58:44.821Z,11.91
